createdAt,value
2023-03-17T00:01:51.504Z,100904.44
2023-03-17T00:04:54.438Z,100901.47
2023-03-17T00:08:02.125Z,100897.56
2023-03-17T00:11:06.524Z,100901.31
2023-03-17T00:14:09.311Z,100902.09
2023-03-17T00:17:14.700Z,100898.72
2023-03-17T00:20:28.082Z,100898.78
2023-03-17T00:23:31.647Z,100898.78
2023-03-17T00:26:34.177Z,100890.16
2023-03-17T00:29:40.235Z,100884.22
2023-03-17T00:32:45.366Z,100888.47
2023-03-17T00:35:48.458Z,100882.59
2023-03-17T00:38:52.626Z,100876.09
2023-03-17T00:41:58.231Z,100874.19
2023-03-17T00:45:01.412Z,100877.13
2023-03-17T00:48:26.338Z,100881.34
2023-03-17T00:51:29.276Z,100877.19
2023-03-17T00:54:32.075Z,100885.44
2023-03-17T00:57:36.979Z,100885.06
2023-03-17T01:00:40.099Z,100883.25
2023-03-17T01:03:44.689Z,100869.47
2023-03-17T01:06:50.749Z,100868.69
2023-03-17T01:09:54.954Z,100874.75
2023-03-17T01:12:59.800Z,100868.88
2023-03-17T01:16:02.694Z,100870.59
2023-03-17T01:19:05.900Z,100876.44
2023-03-17T01:22:09.011Z,100873.06
2023-03-17T01:25:12.471Z,100879.50
2023-03-17T01:28:16.822Z,100880.25
2023-03-17T01:31:20.696Z,100871.28
2023-03-17T01:34:24.065Z,100873.97
2023-03-17T01:37:27.106Z,100874.03
2023-03-17T01:40:32.754Z,100878.47
2023-03-17T01:43:36.630Z,100879.53
2023-03-17T01:46:39.375Z,100872.59
2023-03-17T01:49:43.134Z,100875.28
2023-03-17T01:52:46.080Z,100887.22
2023-03-17T01:55:50.113Z,100885.78
2023-03-17T01:58:54.666Z,100876.97
2023-03-17T02:02:09.001Z,100887.56
2023-03-17T02:05:14.502Z,100878.63
2023-03-17T02:08:17.761Z,100880.94
2023-03-17T02:11:22.509Z,100875.78
2023-03-17T02:14:25.667Z,100881.97
2023-03-17T02:17:29.188Z,100893.66
2023-03-17T02:20:32.181Z,100893.41
2023-03-17T02:23:35.511Z,100903.31
2023-03-17T02:26:38.810Z,100907.87
2023-03-17T02:29:42.098Z,100921.13
2023-03-17T02:32:44.873Z,100924.97
2023-03-17T02:35:47.876Z,100925.28
2023-03-17T02:38:52.822Z,100921.50
2023-03-17T02:41:56.032Z,100923.97
2023-03-17T02:44:59.007Z,100926.28
2023-03-17T02:48:05.073Z,100913.47
2023-03-17T02:51:07.631Z,100909.16
2023-03-17T02:54:10.868Z,100908.37
2023-03-17T02:57:13.408Z,100917.06
2023-03-17T03:00:16.622Z,100923.06
2023-03-17T03:03:19.254Z,100908.84
2023-03-17T03:06:26.266Z,100920.97
2023-03-17T03:09:29.846Z,100916.59
2023-03-17T03:13:16.698Z,100930.81
2023-03-17T03:16:39.773Z,100919.41
2023-03-17T03:20:07.445Z,100910.78
2023-03-17T03:23:12.672Z,100923.84
2023-03-17T03:26:35.603Z,100919.09
2023-03-17T03:29:38.821Z,100911.75
2023-03-17T03:32:41.678Z,100912.19
2023-03-17T03:35:44.481Z,100912.50
2023-03-17T03:38:47.458Z,100916.03
2023-03-17T03:41:50.827Z,100914.41
2023-03-17T03:44:53.880Z,100916.81
2023-03-17T03:47:56.915Z,100911.84
2023-03-17T03:51:01.339Z,100907.66
2023-03-17T03:54:04.044Z,100910.22
2023-03-17T03:57:07.154Z,100909.41
2023-03-17T04:00:14.152Z,100904.25
2023-03-17T04:03:17.275Z,100905.16
2023-03-17T04:06:19.941Z,100904.50
2023-03-17T04:09:22.885Z,100906.94
2023-03-17T04:12:26.105Z,100907.00
2023-03-17T04:15:29.321Z,100906.06
2023-03-17T04:18:32.102Z,100904.56
2023-03-17T04:21:35.088Z,100901.59
2023-03-17T04:24:38.530Z,100897.22
2023-03-17T04:27:42.577Z,100904.31
2023-03-17T04:30:45.784Z,100903.28
2023-03-17T04:33:48.854Z,100902.78
2023-03-17T04:36:51.644Z,100905.41
2023-03-17T04:39:55.871Z,100905.28
2023-03-17T04:42:58.486Z,100905.28
2023-03-17T04:46:01.510Z,100904.25
2023-03-17T04:49:04.710Z,100907.66
2023-03-17T04:52:07.878Z,100913.09
2023-03-17T04:55:12.164Z,100915.03
2023-03-17T04:58:29.459Z,100918.66
2023-03-17T05:01:33.217Z,100927.31
2023-03-17T05:04:36.494Z,100931.53
2023-03-17T05:07:39.148Z,100937.47
2023-03-17T05:10:42.060Z,100936.38
2023-03-17T05:14:06.463Z,100933.78
2023-03-17T05:17:09.291Z,100938.00
2023-03-17T05:20:12.595Z,100933.53
2023-03-17T05:23:17.775Z,100926.72
2023-03-17T05:26:20.346Z,100930.81
2023-03-17T05:29:23.223Z,100942.63
2023-03-17T05:32:25.905Z,100939.25
2023-03-17T05:35:28.855Z,100939.13
2023-03-17T05:38:31.440Z,100940.75
2023-03-17T05:41:34.412Z,100945.19
2023-03-17T05:44:37.063Z,100954.41
2023-03-17T05:47:39.928Z,100947.56
2023-03-17T05:50:42.860Z,100948.22
2023-03-17T05:53:46.006Z,100942.75
2023-03-17T05:56:48.810Z,100938.94
2023-03-17T05:59:51.878Z,100936.75
2023-03-17T06:02:54.556Z,100941.47
2023-03-17T06:05:57.454Z,100944.53
2023-03-17T06:09:01.297Z,100946.94
2023-03-17T06:12:05.022Z,100943.09
2023-03-17T06:15:09.777Z,100935.78
2023-03-17T06:18:12.617Z,100939.66
2023-03-17T06:21:15.606Z,100944.56
2023-03-17T06:24:21.694Z,100951.06
2023-03-17T06:27:24.178Z,100959.25
2023-03-17T06:30:27.079Z,100950.25
2023-03-17T06:33:29.991Z,100955.09
2023-03-17T06:36:33.497Z,100959.41
2023-03-17T06:39:37.448Z,100953.38
2023-03-17T06:42:40.406Z,100957.12
2023-03-17T06:45:44.997Z,100955.03
2023-03-17T06:48:47.859Z,100952.94
2023-03-17T06:51:50.587Z,100954.78
2023-03-17T06:54:55.773Z,100961.75
2023-03-17T06:57:59.027Z,100968.44
2023-03-17T07:01:02.401Z,100963.41
2023-03-17T07:04:05.729Z,100973.84
2023-03-17T07:07:08.602Z,100983.34
2023-03-17T07:10:13.736Z,100981.66
2023-03-17T07:13:16.570Z,100970.34
2023-03-17T07:16:21.091Z,100984.81
2023-03-17T07:19:24.097Z,100978.66
2023-03-17T07:22:27.130Z,100983.72
2023-03-17T07:25:31.453Z,100992.56
2023-03-17T07:28:34.480Z,100986.37
2023-03-17T07:31:38.762Z,100987.53
2023-03-17T07:34:41.706Z,100977.59
2023-03-17T07:37:44.740Z,100970.91
2023-03-17T07:40:49.039Z,100982.28
2023-03-17T07:43:52.421Z,100977.81
2023-03-17T07:46:58.095Z,100988.28
2023-03-17T07:50:01.229Z,100985.84
2023-03-17T07:53:04.714Z,100979.19
2023-03-17T07:56:08.881Z,100983.34
2023-03-17T07:59:11.455Z,100980.22
2023-03-17T08:02:16.393Z,100984.03
2023-03-17T08:05:20.172Z,100973.75
2023-03-17T08:08:23.517Z,100967.31
2023-03-17T08:11:29.578Z,100964.53
2023-03-17T08:14:32.324Z,100962.78
2023-03-17T08:17:36.486Z,100959.19
2023-03-17T08:20:39.117Z,100966.94
2023-03-17T08:23:42.040Z,100963.09
2023-03-17T08:26:49.114Z,100965.31
2023-03-17T08:29:52.063Z,100958.03
2023-03-17T08:32:54.872Z,100960.59
2023-03-17T08:35:57.772Z,100959.44
2023-03-17T08:39:00.847Z,100959.28
2023-03-17T08:42:04.583Z,100962.06
2023-03-17T08:45:07.599Z,100952.31
2023-03-17T08:48:10.499Z,100947.16
2023-03-17T08:51:13.815Z,100956.75
2023-03-17T08:54:17.141Z,100952.81
2023-03-17T08:57:19.835Z,100954.09
2023-03-17T09:00:23.206Z,100958.91
2023-03-17T09:03:26.089Z,100949.28
2023-03-17T09:06:30.285Z,100949.69
2023-03-17T09:09:36.682Z,100956.19
2023-03-17T09:12:39.596Z,100956.63
2023-03-17T09:15:42.213Z,100960.97
2023-03-17T09:18:46.478Z,100959.19
2023-03-17T09:21:49.063Z,100958.87
2023-03-17T09:24:51.997Z,100952.88
2023-03-17T09:27:55.661Z,100954.00
2023-03-17T09:31:02.956Z,100943.50
2023-03-17T09:34:05.813Z,100948.94
2023-03-17T09:37:09.823Z,100942.34
2023-03-17T09:40:17.187Z,100942.16
2023-03-17T09:43:26.139Z,100939.19
2023-03-17T09:46:37.856Z,100938.00
2023-03-17T09:49:48.466Z,100930.50
2023-03-17T09:52:52.388Z,100936.69
2023-03-17T09:55:58.336Z,100935.44
2023-03-17T09:59:14.614Z,100928.72
2023-03-17T10:02:31.873Z,100925.22
2023-03-17T10:05:36.214Z,100913.06
2023-03-17T10:08:46.333Z,100917.06
2023-03-17T10:12:14.095Z,100913.56
2023-03-17T10:15:48.963Z,100898.88
2023-03-17T10:19:00.553Z,100913.91
2023-03-17T10:22:25.112Z,100916.28
2023-03-17T10:25:30.511Z,100907.31
2023-03-17T10:28:36.460Z,100902.25
2023-03-17T10:31:39.466Z,100908.84
2023-03-17T10:34:42.288Z,100900.84
2023-03-17T10:37:47.295Z,100893.34
2023-03-17T10:40:58.911Z,100890.38
2023-03-17T10:44:02.023Z,100881.66
2023-03-17T10:47:04.663Z,100882.91
2023-03-17T10:50:21.611Z,100870.87
2023-03-17T10:53:29.735Z,100873.81
2023-03-17T10:56:37.245Z,100873.53
2023-03-17T10:59:44.681Z,100860.06
2023-03-17T11:02:52.598Z,100868.88
2023-03-17T11:06:03.944Z,100867.28
2023-03-17T11:09:12.852Z,100850.78
2023-03-17T11:12:41.827Z,100858.19
2023-03-17T11:15:54.546Z,100847.97
2023-03-17T11:18:58.888Z,100848.78
2023-03-17T11:22:10.254Z,100837.13
2023-03-17T11:25:20.987Z,100835.56
2023-03-17T11:28:31.134Z,100834.09
2023-03-17T11:31:54.928Z,100826.81
2023-03-17T11:35:06.863Z,100825.19
2023-03-17T11:38:41.643Z,100818.94
2023-03-17T11:41:53.795Z,100817.91
2023-03-17T11:44:59.393Z,100806.50
2023-03-17T11:48:25.277Z,100810.59
2023-03-17T11:51:36.129Z,100806.78
2023-03-17T11:55:02.226Z,100805.25
2023-03-17T11:58:10.651Z,100804.09
2023-03-17T12:01:16.460Z,100781.44
2023-03-17T12:04:26.428Z,100784.06
2023-03-17T12:07:42.120Z,100774.81
2023-03-17T12:10:49.517Z,100787.94
2023-03-17T12:13:58.931Z,100769.72
2023-03-17T12:17:18.564Z,100757.66
2023-03-17T12:20:36.463Z,100738.28
2023-03-17T12:23:42.257Z,100737.34
2023-03-17T12:26:52.230Z,100739.34
2023-03-17T12:30:06.596Z,100742.59
2023-03-17T12:33:30.371Z,100737.78
2023-03-17T12:36:35.639Z,100734.53
2023-03-17T12:39:41.246Z,100731.59
2023-03-17T12:43:34.651Z,100731.50
2023-03-17T12:46:51.650Z,100728.13
2023-03-17T12:50:07.021Z,100724.87
2023-03-17T12:53:29.490Z,100713.38
2023-03-17T12:56:34.280Z,100704.91
2023-03-17T12:59:37.392Z,100704.06
2023-03-17T13:02:41.063Z,100711.97
2023-03-17T13:05:48.389Z,100700.06
2023-03-17T13:08:53.194Z,100704.03
2023-03-17T13:11:56.981Z,100703.41
2023-03-17T13:14:59.983Z,100696.03
2023-03-17T13:18:15.416Z,100684.50
2023-03-17T13:21:20.601Z,100689.91
2023-03-17T13:24:47.343Z,100681.75
2023-03-17T13:27:50.218Z,100681.19
2023-03-17T13:31:08.731Z,100684.84
2023-03-17T13:34:20.820Z,100683.00
2023-03-17T13:37:47.799Z,100680.28
2023-03-17T13:41:15.528Z,100678.09
2023-03-17T13:44:24.267Z,100681.97
2023-03-17T13:47:33.628Z,100681.34
2023-03-17T13:50:40.097Z,100673.63
2023-03-17T13:53:47.217Z,100679.94
2023-03-17T13:56:50.872Z,100674.63
2023-03-17T14:00:01.429Z,100670.84
2023-03-17T14:03:12.192Z,100675.72
2023-03-17T14:06:18.775Z,100677.28
2023-03-17T14:09:25.454Z,100673.38
2023-03-17T14:12:39.400Z,100672.22
2023-03-17T14:16:15.283Z,100663.06
2023-03-17T14:19:23.108Z,100663.00
2023-03-17T14:22:26.450Z,100648.59
2023-03-17T14:25:35.329Z,100637.22
2023-03-17T14:28:38.081Z,100640.25
2023-03-17T14:31:40.957Z,100637.09
2023-03-17T14:35:13.163Z,100636.94
2023-03-17T14:38:22.073Z,100635.16
2023-03-17T14:41:28.506Z,100630.47
2023-03-17T14:44:40.025Z,100622.25
2023-03-17T14:47:43.457Z,100614.91
2023-03-17T14:50:54.984Z,100612.56
2023-03-17T14:54:00.603Z,100613.41
2023-03-17T14:57:08.354Z,100603.16
2023-03-17T15:00:37.957Z,100598.59
2023-03-17T15:04:12.278Z,100592.69
2023-03-17T15:07:41.230Z,100589.34
2023-03-17T15:10:44.693Z,100588.72
2023-03-17T15:13:47.664Z,100577.16
2023-03-17T15:16:52.619Z,100585.16
2023-03-17T15:19:58.083Z,100576.37
2023-03-17T15:23:05.614Z,100568.47
2023-03-17T15:26:22.526Z,100570.44
2023-03-17T15:29:25.464Z,100568.47
2023-03-17T15:32:29.233Z,100565.72
2023-03-17T15:35:32.087Z,100570.88
2023-03-17T15:38:36.787Z,100561.91
2023-03-17T15:41:39.790Z,100564.16
2023-03-17T15:44:42.492Z,100565.75
2023-03-17T15:47:47.075Z,100567.66
2023-03-17T15:50:50.593Z,100568.69
2023-03-17T15:53:53.817Z,100567.06
2023-03-17T15:56:56.341Z,100554.50
2023-03-17T15:59:59.264Z,100553.62
2023-03-17T16:03:31.245Z,100554.41
2023-03-17T16:06:35.048Z,100550.50
2023-03-17T16:09:37.717Z,100553.44
2023-03-17T16:12:41.806Z,100539.47
2023-03-17T16:15:49.964Z,100546.53
2023-03-17T16:18:53.502Z,100560.34
2023-03-17T16:21:57.162Z,100562.91
2023-03-17T16:24:59.921Z,100561.66
2023-03-17T16:28:12.587Z,100555.22
2023-03-17T16:31:33.599Z,100563.06
2023-03-17T16:34:36.305Z,100558.56
2023-03-17T16:37:39.190Z,100567.22
2023-03-17T16:40:42.247Z,100564.03
2023-03-17T16:43:47.235Z,100562.47
2023-03-17T16:46:49.805Z,100566.34
2023-03-17T16:49:52.842Z,100565.06
2023-03-17T16:52:55.896Z,100569.19
2023-03-17T16:55:59.203Z,100570.16
2023-03-17T16:59:02.117Z,100571.53
2023-03-17T17:02:14.776Z,100572.84
2023-03-17T17:05:20.382Z,100566.97
2023-03-17T17:08:24.189Z,100577.13
2023-03-17T17:11:26.969Z,100579.97
2023-03-17T17:14:30.546Z,100581.44
2023-03-17T17:17:33.408Z,100580.84
2023-03-17T17:20:39.344Z,100573.19
2023-03-17T17:23:42.621Z,100576.94
2023-03-17T17:26:45.789Z,100570.91
2023-03-17T17:29:48.708Z,100582.53
2023-03-17T17:32:52.351Z,100578.25
2023-03-17T17:35:55.383Z,100586.34
2023-03-17T17:39:01.129Z,100587.88
2023-03-17T17:42:04.031Z,100583.22
2023-03-17T17:45:07.686Z,100575.91
2023-03-17T17:48:11.475Z,100577.88
2023-03-17T17:51:14.966Z,100581.53
2023-03-17T17:54:17.697Z,100586.31
2023-03-17T17:57:20.960Z,100578.28
2023-03-17T18:00:26.148Z,100586.09
2023-03-17T18:03:31.609Z,100583.00
2023-03-17T18:06:35.732Z,100580.94
2023-03-17T18:09:39.114Z,100570.97
2023-03-17T18:12:41.950Z,100572.78
2023-03-17T18:15:45.059Z,100569.19
2023-03-17T18:18:47.823Z,100576.13
2023-03-17T18:21:51.654Z,100582.25
2023-03-17T18:24:55.276Z,100588.84
2023-03-17T18:28:00.911Z,100582.00
2023-03-17T18:31:07.714Z,100582.44
2023-03-17T18:34:14.804Z,100577.16
2023-03-17T18:37:18.798Z,100574.62
2023-03-17T18:40:22.155Z,100582.06
2023-03-17T18:43:25.172Z,100582.81
2023-03-17T18:46:28.542Z,100577.25
2023-03-17T18:49:31.619Z,100590.25
2023-03-17T18:52:37.329Z,100585.56
2023-03-17T18:55:40.013Z,100578.12
2023-03-17T18:58:43.697Z,100574.62
2023-03-17T19:01:47.598Z,100576.59
2023-03-17T19:04:51.770Z,100590.47
2023-03-17T19:07:55.038Z,100588.25
2023-03-17T19:10:58.666Z,100577.44
2023-03-17T19:14:04.661Z,100588.53
2023-03-17T19:17:09.087Z,100584.22
2023-03-17T19:20:13.236Z,100586.75
2023-03-17T19:23:16.697Z,100583.41
2023-03-17T19:26:19.989Z,100577.81
2023-03-17T19:29:23.199Z,100573.91
2023-03-17T19:32:26.186Z,100569.16
2023-03-17T19:35:30.000Z,100578.12
2023-03-17T19:38:32.920Z,100577.62
2023-03-17T19:41:36.138Z,100581.38
2023-03-17T19:44:42.470Z,100587.38
2023-03-17T19:47:47.130Z,100584.22
2023-03-17T19:50:50.162Z,100572.41
2023-03-17T19:53:56.327Z,100572.09
2023-03-17T19:56:59.357Z,100575.00
2023-03-17T20:00:02.759Z,100568.78
2023-03-17T20:03:14.334Z,100562.97
2023-03-17T20:06:17.684Z,100571.81
2023-03-17T20:09:21.953Z,100550.13
2023-03-17T20:12:25.594Z,100553.28
2023-03-17T20:15:29.357Z,100564.03
2023-03-17T20:18:33.293Z,100557.06
2023-03-17T20:21:37.706Z,100558.81
2023-03-17T20:24:42.500Z,100547.81
2023-03-17T20:27:45.525Z,100551.28
2023-03-17T20:30:50.159Z,100556.53
2023-03-17T20:33:53.368Z,100546.69
2023-03-17T20:36:56.998Z,100551.00
2023-03-17T20:40:02.063Z,100547.62
2023-03-17T20:43:06.787Z,100554.16
2023-03-17T20:46:14.835Z,100545.41
2023-03-17T20:49:18.367Z,100555.75
2023-03-17T20:52:22.377Z,100547.16
2023-03-17T20:55:25.311Z,100544.81
2023-03-17T20:58:28.930Z,100546.97
2023-03-17T21:01:33.952Z,100553.00
2023-03-17T21:04:37.230Z,100542.25
2023-03-17T21:07:40.305Z,100534.81
2023-03-17T21:10:43.318Z,100547.50
2023-03-17T21:13:47.139Z,100533.34
2023-03-17T21:16:50.417Z,100529.94
2023-03-17T21:19:54.613Z,100535.91
2023-03-17T21:22:57.302Z,100532.91
2023-03-17T21:26:00.945Z,100535.09
2023-03-17T21:29:03.923Z,100528.19
2023-03-17T21:32:08.452Z,100523.78
2023-03-17T21:35:11.285Z,100525.56
2023-03-17T21:38:14.523Z,100529.09
2023-03-17T21:41:29.232Z,100515.41
2023-03-17T21:44:32.504Z,100529.00
2023-03-17T21:47:36.377Z,100520.28
2023-03-17T21:50:39.470Z,100518.59
2023-03-17T21:53:42.638Z,100515.31
2023-03-17T21:56:46.295Z,100527.31
2023-03-17T21:59:48.930Z,100514.28
2023-03-17T22:02:52.718Z,100522.25
2023-03-17T22:05:56.671Z,100521.28
2023-03-17T22:08:59.319Z,100528.47
2023-03-17T22:12:03.767Z,100523.84
2023-03-17T22:15:08.898Z,100531.78
2023-03-17T22:18:11.765Z,100529.66
2023-03-17T22:21:14.787Z,100526.34
2023-03-17T22:24:17.847Z,100531.50
2023-03-17T22:27:20.618Z,100532.34
2023-03-17T22:30:23.699Z,100530.59
2023-03-17T22:33:26.339Z,100529.66
2023-03-17T22:36:29.948Z,100532.47
2023-03-17T22:39:34.600Z,100529.91
2023-03-17T22:42:38.283Z,100524.00
2023-03-17T22:45:41.058Z,100522.56
2023-03-17T22:48:44.948Z,100527.97
2023-03-17T22:51:48.272Z,100515.75
2023-03-17T22:54:51.366Z,100522.13
2023-03-17T22:57:53.882Z,100509.22
2023-03-17T23:00:57.083Z,100500.44
2023-03-17T23:04:00.444Z,100511.41
2023-03-17T23:07:03.385Z,100509.81
2023-03-17T23:10:10.781Z,100510.78
2023-03-17T23:13:13.932Z,100507.41
2023-03-17T23:16:17.177Z,100513.22
2023-03-17T23:19:20.673Z,100510.41
2023-03-17T23:22:23.739Z,100507.41
2023-03-17T23:25:27.031Z,100511.53
2023-03-17T23:28:29.758Z,100502.88
2023-03-17T23:31:34.108Z,100509.88
2023-03-17T23:34:37.109Z,100514.38
2023-03-17T23:37:41.021Z,100507.97
2023-03-17T23:40:44.625Z,100505.84
2023-03-17T23:43:47.476Z,100502.56
2023-03-17T23:46:50.097Z,100506.25
2023-03-17T23:49:53.314Z,100508.31
2023-03-17T23:52:56.071Z,100513.75
2023-03-17T23:55:59.797Z,100512.03
2023-03-17T23:59:04.029Z,100509.34
